sensor_id;sensor_type;location;lat;lon;timestamp;temperature;humidity
20337;DHT22;10326;53.660;10.200;2022-07-11T00:02:24;16.50;59.50
20337;DHT22;10326;53.660;10.200;2022-07-11T00:04:51;16.50;59.60
20337;DHT22;10326;53.660;10.200;2022-07-11T00:07:18;16.40;59.60
20337;DHT22;10326;53.660;10.200;2022-07-11T00:09:46;16.40;59.70
20337;DHT22;10326;53.660;10.200;2022-07-11T00:12:13;16.40;59.80
20337;DHT22;10326;53.660;10.200;2022-07-11T00:14:41;16.30;59.90
20337;DHT22;10326;53.660;10.200;2022-07-11T00:17:09;16.30;60.00
20337;DHT22;10326;53.660;10.200;2022-07-11T00:19:37;16.30;60.00
20337;DHT22;10326;53.660;10.200;2022-07-11T00:22:05;16.30;60.30
20337;DHT22;10326;53.660;10.200;2022-07-11T00:24:33;16.30;60.20
20337;DHT22;10326;53.660;10.200;2022-07-11T00:27:00;16.30;60.30
20337;DHT22;10326;53.660;10.200;2022-07-11T00:29:27;16.20;60.20
20337;DHT22;10326;53.660;10.200;2022-07-11T00:31:54;16.20;60.10
20337;DHT22;10326;53.660;10.200;2022-07-11T00:34:21;16.20;60.30
20337;DHT22;10326;53.660;10.200;2022-07-11T00:36:50;16.20;60.30
20337;DHT22;10326;53.660;10.200;2022-07-11T00:39:17;16.10;60.50
20337;DHT22;10326;53.660;10.200;2022-07-11T00:41:44;16.10;60.40
20337;DHT22;10326;53.660;10.200;2022-07-11T00:44:12;16.10;60.40
20337;DHT22;10326;53.660;10.200;2022-07-11T00:46:40;16.10;60.50
20337;DHT22;10326;53.660;10.200;2022-07-11T00:49:07;16.00;60.50
20337;DHT22;10326;53.660;10.200;2022-07-11T00:51:34;16.00;60.60
20337;DHT22;10326;53.660;10.200;2022-07-11T00:54:02;16.00;60.60
20337;DHT22;10326;53.660;10.200;2022-07-11T00:56:30;15.90;60.80
20337;DHT22;10326;53.660;10.200;2022-07-11T00:58:58;15.90;60.80
20337;DHT22;10326;53.660;10.200;2022-07-11T01:01:25;15.90;60.90
20337;DHT22;10326;53.660;10.200;2022-07-11T01:03:52;15.90;61.00
20337;DHT22;10326;53.660;10.200;2022-07-11T01:06:19;15.80;61.00
20337;DHT22;10326;53.660;10.200;2022-07-11T01:08:46;15.80;61.10
20337;DHT22;10326;53.660;10.200;2022-07-11T01:11:15;15.80;61.20
20337;DHT22;10326;53.660;10.200;2022-07-11T01:13:45;15.70;61.30
20337;DHT22;10326;53.660;10.200;2022-07-11T01:16:13;15.70;61.30
20337;DHT22;10326;53.660;10.200;2022-07-11T01:18:42;15.70;61.40
20337;DHT22;10326;53.660;10.200;2022-07-11T01:21:18;15.70;61.30
20337;DHT22;10326;53.660;10.200;2022-07-11T01:23:49;15.60;61.70
20337;DHT22;10326;53.660;10.200;2022-07-11T01:26:18;15.60;61.50
20337;DHT22;10326;53.660;10.200;2022-07-11T01:28:45;15.50;61.40
20337;DHT22;10326;53.660;10.200;2022-07-11T01:31:13;15.50;61.50
20337;DHT22;10326;53.660;10.200;2022-07-11T01:33:40;15.50;61.60
20337;DHT22;10326;53.660;10.200;2022-07-11T01:36:07;15.50;61.70
20337;DHT22;10326;53.660;10.200;2022-07-11T01:38:35;15.40;61.60
20337;DHT22;10326;53.660;10.200;2022-07-11T01:41:04;15.40;61.70
20337;DHT22;10326;53.660;10.200;2022-07-11T01:43:31;15.40;61.90
20337;DHT22;10326;53.660;10.200;2022-07-11T01:45:58;15.40;61.70
20337;DHT22;10326;53.660;10.200;2022-07-11T01:48:26;15.30;61.60
20337;DHT22;10326;53.660;10.200;2022-07-11T01:50:53;15.30;61.70
20337;DHT22;10326;53.660;10.200;2022-07-11T01:53:20;15.30;62.00
20337;DHT22;10326;53.660;10.200;2022-07-11T01:55:48;15.30;62.10
20337;DHT22;10326;53.660;10.200;2022-07-11T01:58:16;15.30;62.10
20337;DHT22;10326;53.660;10.200;2022-07-11T02:00:43;15.30;62.40
20337;DHT22;10326;53.660;10.200;2022-07-11T02:03:10;15.20;62.20
20337;DHT22;10326;53.660;10.200;2022-07-11T02:05:38;15.20;62.20
20337;DHT22;10326;53.660;10.200;2022-07-11T02:08:06;15.20;62.40
20337;DHT22;10326;53.660;10.200;2022-07-11T02:10:41;15.20;62.40
20337;DHT22;10326;53.660;10.200;2022-07-11T02:13:10;15.20;62.50
20337;DHT22;10326;53.660;10.200;2022-07-11T02:15:39;15.10;62.50
20337;DHT22;10326;53.660;10.200;2022-07-11T02:18:07;15.10;62.70
20337;DHT22;10326;53.660;10.200;2022-07-11T02:20:36;15.10;62.70
20337;DHT22;10326;53.660;10.200;2022-07-11T02:23:05;15.10;62.70
20337;DHT22;10326;53.660;10.200;2022-07-11T02:25:32;15.10;62.70
20337;DHT22;10326;53.660;10.200;2022-07-11T02:28:01;15.10;62.80
20337;DHT22;10326;53.660;10.200;2022-07-11T02:30:28;15.10;63.10
20337;DHT22;10326;53.660;10.200;2022-07-11T02:32:56;15.00;63.20
20337;DHT22;10326;53.660;10.200;2022-07-11T02:35:23;15.00;63.40
20337;DHT22;10326;53.660;10.200;2022-07-11T02:37:50;15.00;63.60
20337;DHT22;10326;53.660;10.200;2022-07-11T02:40:18;15.00;63.90
20337;DHT22;10326;53.660;10.200;2022-07-11T02:42:45;15.00;64.10
20337;DHT22;10326;53.660;10.200;2022-07-11T02:45:12;15.00;64.20
20337;DHT22;10326;53.660;10.200;2022-07-11T02:47:40;15.00;64.20
20337;DHT22;10326;53.660;10.200;2022-07-11T02:50:11;15.00;64.30
20337;DHT22;10326;53.660;10.200;2022-07-11T02:52:39;15.00;64.60
20337;DHT22;10326;53.660;10.200;2022-07-11T02:55:08;15.10;64.60
20337;DHT22;10326;53.660;10.200;2022-07-11T02:57:36;15.10;64.60
20337;DHT22;10326;53.660;10.200;2022-07-11T03:00:06;15.10;64.60
20337;DHT22;10326;53.660;10.200;2022-07-11T03:02:35;15.10;64.70
20337;DHT22;10326;53.660;10.200;2022-07-11T03:05:03;15.10;64.80
20337;DHT22;10326;53.660;10.200;2022-07-11T03:07:32;15.10;64.90
20337;DHT22;10326;53.660;10.200;2022-07-11T03:09:59;15.10;65.00
20337;DHT22;10326;53.660;10.200;2022-07-11T03:12:26;15.10;65.00
20337;DHT22;10326;53.660;10.200;2022-07-11T03:14:53;15.10;65.10
20337;DHT22;10326;53.660;10.200;2022-07-11T03:17:21;15.10;65.20
20337;DHT22;10326;53.660;10.200;2022-07-11T03:19:49;15.10;65.50
20337;DHT22;10326;53.660;10.200;2022-07-11T03:22:16;15.10;65.30
20337;DHT22;10326;53.660;10.200;2022-07-11T03:24:45;15.10;65.30
20337;DHT22;10326;53.660;10.200;2022-07-11T03:27:12;15.10;65.30
20337;DHT22;10326;53.660;10.200;2022-07-11T03:29:40;15.10;65.20
20337;DHT22;10326;53.660;10.200;2022-07-11T03:32:07;15.00;65.10
20337;DHT22;10326;53.660;10.200;2022-07-11T03:34:35;15.10;65.20
20337;DHT22;10326;53.660;10.200;2022-07-11T03:37:02;15.00;65.10
20337;DHT22;10326;53.660;10.200;2022-07-11T03:39:29;15.00;65.10
20337;DHT22;10326;53.660;10.200;2022-07-11T03:41:58;15.00;65.10
20337;DHT22;10326;53.660;10.200;2022-07-11T03:44:25;15.00;65.30
20337;DHT22;10326;53.660;10.200;2022-07-11T03:46:52;15.00;65.30
20337;DHT22;10326;53.660;10.200;2022-07-11T03:49:19;15.00;65.50
20337;DHT22;10326;53.660;10.200;2022-07-11T03:51:46;15.00;65.60
20337;DHT22;10326;53.660;10.200;2022-07-11T03:54:13;15.00;65.80
20337;DHT22;10326;53.660;10.200;2022-07-11T03:56:40;15.00;65.80
20337;DHT22;10326;53.660;10.200;2022-07-11T03:59:09;15.00;66.00
20337;DHT22;10326;53.660;10.200;2022-07-11T04:01:36;15.00;66.20
20337;DHT22;10326;53.660;10.200;2022-07-11T04:04:03;15.00;66.20
20337;DHT22;10326;53.660;10.200;2022-07-11T04:06:34;15.00;66.30
20337;DHT22;10326;53.660;10.200;2022-07-11T04:09:01;14.90;66.30
20337;DHT22;10326;53.660;10.200;2022-07-11T04:11:28;15.00;66.50
20337;DHT22;10326;53.660;10.200;2022-07-11T04:13:56;15.00;66.70
20337;DHT22;10326;53.660;10.200;2022-07-11T04:16:25;15.00;66.80
20337;DHT22;10326;53.660;10.200;2022-07-11T04:18:51;15.00;67.20
20337;DHT22;10326;53.660;10.200;2022-07-11T04:21:21;15.00;67.20
20337;DHT22;10326;53.660;10.200;2022-07-11T04:23:52;15.00;67.60
20337;DHT22;10326;53.660;10.200;2022-07-11T04:26:19;15.00;67.60
20337;DHT22;10326;53.660;10.200;2022-07-11T04:28:46;15.00;67.90
20337;DHT22;10326;53.660;10.200;2022-07-11T04:31:13;15.10;68.20
20337;DHT22;10326;53.660;10.200;2022-07-11T04:33:42;15.10;68.40
20337;DHT22;10326;53.660;10.200;2022-07-11T04:36:09;15.10;68.80
20337;DHT22;10326;53.660;10.200;2022-07-11T04:38:36;15.20;68.90
20337;DHT22;10326;53.660;10.200;2022-07-11T04:41:03;15.20;69.00
20337;DHT22;10326;53.660;10.200;2022-07-11T04:43:30;15.20;69.20
20337;DHT22;10326;53.660;10.200;2022-07-11T04:45:58;15.30;69.40
20337;DHT22;10326;53.660;10.200;2022-07-11T04:48:25;15.30;69.50
20337;DHT22;10326;53.660;10.200;2022-07-11T04:50:54;15.30;69.60
20337;DHT22;10326;53.660;10.200;2022-07-11T04:53:21;15.40;70.00
20337;DHT22;10326;53.660;10.200;2022-07-11T04:55:48;15.40;69.90
20337;DHT22;10326;53.660;10.200;2022-07-11T04:58:15;15.50;70.10
20337;DHT22;10326;53.660;10.200;2022-07-11T05:00:42;15.50;70.20
20337;DHT22;10326;53.660;10.200;2022-07-11T05:03:09;15.50;70.40
20337;DHT22;10326;53.660;10.200;2022-07-11T05:05:36;15.60;70.40
20337;DHT22;10326;53.660;10.200;2022-07-11T05:08:05;15.60;70.50
20337;DHT22;10326;53.660;10.200;2022-07-11T05:10:32;15.60;70.60
20337;DHT22;10326;53.660;10.200;2022-07-11T05:13:01;15.70;70.80
20337;DHT22;10326;53.660;10.200;2022-07-11T05:15:29;15.70;70.80
20337;DHT22;10326;53.660;10.200;2022-07-11T05:17:56;15.80;71.00
20337;DHT22;10326;53.660;10.200;2022-07-11T05:20:23;15.80;71.00
20337;DHT22;10326;53.660;10.200;2022-07-11T05:22:50;15.80;70.90
20337;DHT22;10326;53.660;10.200;2022-07-11T05:25:18;15.90;71.10
20337;DHT22;10326;53.660;10.200;2022-07-11T05:27:45;15.90;71.30
20337;DHT22;10326;53.660;10.200;2022-07-11T05:30:12;16.00;71.30
20337;DHT22;10326;53.660;10.200;2022-07-11T05:32:40;16.00;71.90
20337;DHT22;10326;53.660;10.200;2022-07-11T05:35:08;16.00;71.40
20337;DHT22;10326;53.660;10.200;2022-07-11T05:37:36;16.10;71.50
20337;DHT22;10326;53.660;10.200;2022-07-11T05:40:03;16.10;71.60
20337;DHT22;10326;53.660;10.200;2022-07-11T05:42:33;16.20;71.80
20337;DHT22;10326;53.660;10.200;2022-07-11T05:45:00;16.20;71.80
20337;DHT22;10326;53.660;10.200;2022-07-11T05:47:27;16.20;71.60
20337;DHT22;10326;53.660;10.200;2022-07-11T05:49:54;16.30;71.70
20337;DHT22;10326;53.660;10.200;2022-07-11T05:52:21;16.30;71.80
20337;DHT22;10326;53.660;10.200;2022-07-11T05:54:48;16.40;71.80
20337;DHT22;10326;53.660;10.200;2022-07-11T05:57:15;16.40;71.80
20337;DHT22;10326;53.660;10.200;2022-07-11T05:59:44;16.40;71.80
20337;DHT22;10326;53.660;10.200;2022-07-11T06:02:11;16.50;72.10
20337;DHT22;10326;53.660;10.200;2022-07-11T06:04:38;16.60;71.80
20337;DHT22;10326;53.660;10.200;2022-07-11T06:07:06;16.60;71.90
20337;DHT22;10326;53.660;10.200;2022-07-11T06:09:33;16.60;71.80
20337;DHT22;10326;53.660;10.200;2022-07-11T06:11:59;16.70;72.00
20337;DHT22;10326;53.660;10.200;2022-07-11T06:14:26;16.70;71.90
20337;DHT22;10326;53.660;10.200;2022-07-11T06:16:54;16.80;71.90
20337;DHT22;10326;53.660;10.200;2022-07-11T06:19:21;16.80;71.90
20337;DHT22;10326;53.660;10.200;2022-07-11T06:21:48;16.80;71.80
20337;DHT22;10326;53.660;10.200;2022-07-11T06:24:15;16.90;71.90
20337;DHT22;10326;53.660;10.200;2022-07-11T06:26:42;16.90;72.10
20337;DHT22;10326;53.660;10.200;2022-07-11T06:29:09;17.00;72.20
20337;DHT22;10326;53.660;10.200;2022-07-11T06:31:37;17.00;72.00
20337;DHT22;10326;53.660;10.200;2022-07-11T06:34:05;17.10;72.10
20337;DHT22;10326;53.660;10.200;2022-07-11T06:36:32;17.10;72.20
20337;DHT22;10326;53.660;10.200;2022-07-11T06:38:59;17.10;72.10
20337;DHT22;10326;53.660;10.200;2022-07-11T06:41:27;17.20;71.90
20337;DHT22;10326;53.660;10.200;2022-07-11T06:43:54;17.20;71.80
20337;DHT22;10326;53.660;10.200;2022-07-11T06:46:21;17.30;71.70
20337;DHT22;10326;53.660;10.200;2022-07-11T06:48:48;17.30;71.80
20337;DHT22;10326;53.660;10.200;2022-07-11T06:51:16;17.30;72.00
20337;DHT22;10326;53.660;10.200;2022-07-11T06:53:43;17.40;71.80
20337;DHT22;10326;53.660;10.200;2022-07-11T06:56:10;17.40;72.30
20337;DHT22;10326;53.660;10.200;2022-07-11T06:58:37;17.40;71.70
20337;DHT22;10326;53.660;10.200;2022-07-11T07:01:05;17.50;71.80
20337;DHT22;10326;53.660;10.200;2022-07-11T07:03:34;17.60;71.70
20337;DHT22;10326;53.660;10.200;2022-07-11T07:06:02;17.60;71.70
20337;DHT22;10326;53.660;10.200;2022-07-11T07:08:30;17.70;71.80
20337;DHT22;10326;53.660;10.200;2022-07-11T07:10:58;17.70;71.70
20337;DHT22;10326;53.660;10.200;2022-07-11T07:13:25;17.80;71.70
20337;DHT22;10326;53.660;10.200;2022-07-11T07:15:55;17.90;71.50
20337;DHT22;10326;53.660;10.200;2022-07-11T07:18:22;17.90;71.50
20337;DHT22;10326;53.660;10.200;2022-07-11T07:20:50;17.90;71.50
20337;DHT22;10326;53.660;10.200;2022-07-11T07:23:17;18.00;71.60
20337;DHT22;10326;53.660;10.200;2022-07-11T07:25:46;18.00;71.60
20337;DHT22;10326;53.660;10.200;2022-07-11T07:28:13;18.10;71.40
20337;DHT22;10326;53.660;10.200;2022-07-11T07:30:41;18.10;71.10
20337;DHT22;10326;53.660;10.200;2022-07-11T07:33:10;18.20;71.10
20337;DHT22;10326;53.660;10.200;2022-07-11T07:35:37;18.20;71.00
20337;DHT22;10326;53.660;10.200;2022-07-11T07:38:04;18.30;71.10
20337;DHT22;10326;53.660;10.200;2022-07-11T07:40:31;18.40;71.10
20337;DHT22;10326;53.660;10.200;2022-07-11T07:43:00;18.40;70.90
20337;DHT22;10326;53.660;10.200;2022-07-11T07:45:27;18.50;70.40
20337;DHT22;10326;53.660;10.200;2022-07-11T07:47:54;18.50;70.40
20337;DHT22;10326;53.660;10.200;2022-07-11T07:50:21;18.60;70.30
20337;DHT22;10326;53.660;10.200;2022-07-11T07:52:48;18.60;70.10
20337;DHT22;10326;53.660;10.200;2022-07-11T07:55:15;18.70;70.20
20337;DHT22;10326;53.660;10.200;2022-07-11T07:57:44;18.70;69.90
20337;DHT22;10326;53.660;10.200;2022-07-11T08:00:13;18.70;69.70
20337;DHT22;10326;53.660;10.200;2022-07-11T08:03:03;18.80;69.70
20337;DHT22;10326;53.660;10.200;2022-07-11T08:05:31;18.80;69.20
20337;DHT22;10326;53.660;10.200;2022-07-11T08:07:58;18.90;69.40
20337;DHT22;10326;53.660;10.200;2022-07-11T08:10:26;18.90;69.60
20337;DHT22;10326;53.660;10.200;2022-07-11T08:12:53;18.90;69.40
20337;DHT22;10326;53.660;10.200;2022-07-11T08:15:22;19.00;69.20
20337;DHT22;10326;53.660;10.200;2022-07-11T08:17:49;19.00;68.80
20337;DHT22;10326;53.660;10.200;2022-07-11T08:20:18;19.10;69.10
20337;DHT22;10326;53.660;10.200;2022-07-11T08:22:45;19.10;68.80
20337;DHT22;10326;53.660;10.200;2022-07-11T08:25:12;19.20;68.90
20337;DHT22;10326;53.660;10.200;2022-07-11T08:27:39;19.20;69.00
20337;DHT22;10326;53.660;10.200;2022-07-11T08:30:08;19.20;68.90
20337;DHT22;10326;53.660;10.200;2022-07-11T08:32:39;19.30;68.80
20337;DHT22;10326;53.660;10.200;2022-07-11T08:35:07;19.30;68.80
20337;DHT22;10326;53.660;10.200;2022-07-11T08:37:36;19.40;69.10
20337;DHT22;10326;53.660;10.200;2022-07-11T08:40:04;19.40;68.80
20337;DHT22;10326;53.660;10.200;2022-07-11T08:42:37;19.50;69.10
20337;DHT22;10326;53.660;10.200;2022-07-11T08:45:08;19.60;68.80
20337;DHT22;10326;53.660;10.200;2022-07-11T08:47:38;19.60;68.30
20337;DHT22;10326;53.660;10.200;2022-07-11T08:50:07;19.70;67.70
20337;DHT22;10326;53.660;10.200;2022-07-11T08:52:36;19.70;67.20
20337;DHT22;10326;53.660;10.200;2022-07-11T08:55:04;19.70;67.10
20337;DHT22;10326;53.660;10.200;2022-07-11T08:57:32;19.80;67.40
20337;DHT22;10326;53.660;10.200;2022-07-11T09:00:01;19.80;67.40
20337;DHT22;10326;53.660;10.200;2022-07-11T09:02:32;19.80;67.50
20337;DHT22;10326;53.660;10.200;2022-07-11T09:05:02;19.90;67.20
20337;DHT22;10326;53.660;10.200;2022-07-11T09:07:31;20.00;67.30
20337;DHT22;10326;53.660;10.200;2022-07-11T09:09:59;20.00;67.20
20337;DHT22;10326;53.660;10.200;2022-07-11T09:12:26;20.10;66.60
20337;DHT22;10326;53.660;10.200;2022-07-11T09:14:53;20.10;66.80
20337;DHT22;10326;53.660;10.200;2022-07-11T09:17:25;20.20;66.60
20337;DHT22;10326;53.660;10.200;2022-07-11T09:19:53;20.20;66.50
20337;DHT22;10326;53.660;10.200;2022-07-11T09:22:21;20.30;66.50
20337;DHT22;10326;53.660;10.200;2022-07-11T09:25:08;20.30;65.90
20337;DHT22;10326;53.660;10.200;2022-07-11T09:28:00;20.30;65.80
20337;DHT22;10326;53.660;10.200;2022-07-11T09:30:31;20.30;65.30
20337;DHT22;10326;53.660;10.200;2022-07-11T09:33:02;20.40;65.50
20337;DHT22;10326;53.660;10.200;2022-07-11T09:35:31;20.40;65.40
20337;DHT22;10326;53.660;10.200;2022-07-11T09:38:04;20.40;64.40
20337;DHT22;10326;53.660;10.200;2022-07-11T09:40:32;20.40;65.20
20337;DHT22;10326;53.660;10.200;2022-07-11T09:42:59;20.40;65.60
20337;DHT22;10326;53.660;10.200;2022-07-11T09:45:28;20.50;65.50
20337;DHT22;10326;53.660;10.200;2022-07-11T09:47:57;20.50;64.80
20337;DHT22;10326;53.660;10.200;2022-07-11T09:50:27;20.60;64.40
20337;DHT22;10326;53.660;10.200;2022-07-11T09:53:05;20.60;64.00
20337;DHT22;10326;53.660;10.200;2022-07-11T09:55:34;20.70;64.10
20337;DHT22;10326;53.660;10.200;2022-07-11T09:58:03;20.70;64.70
20337;DHT22;10326;53.660;10.200;2022-07-11T10:00:31;20.70;64.30
20337;DHT22;10326;53.660;10.200;2022-07-11T10:02:59;20.80;64.20
20337;DHT22;10326;53.660;10.200;2022-07-11T10:05:27;20.80;63.60
20337;DHT22;10326;53.660;10.200;2022-07-11T10:07:55;20.90;63.80
20337;DHT22;10326;53.660;10.200;2022-07-11T10:10:24;20.90;64.20
20337;DHT22;10326;53.660;10.200;2022-07-11T10:12:52;21.00;64.10
20337;DHT22;10326;53.660;10.200;2022-07-11T10:15:23;21.10;63.60
20337;DHT22;10326;53.660;10.200;2022-07-11T10:18:00;21.20;63.50
20337;DHT22;10326;53.660;10.200;2022-07-11T10:20:37;21.30;62.90
20337;DHT22;10326;53.660;10.200;2022-07-11T10:23:14;21.40;63.30
20337;DHT22;10326;53.660;10.200;2022-07-11T10:25:50;21.40;62.80
20337;DHT22;10326;53.660;10.200;2022-07-11T10:28:25;21.50;62.30
20337;DHT22;10326;53.660;10.200;2022-07-11T10:30:56;21.60;62.70
20337;DHT22;10326;53.660;10.200;2022-07-11T10:33:26;21.70;63.00
20337;DHT22;10326;53.660;10.200;2022-07-11T10:35:54;21.70;62.10
20337;DHT22;10326;53.660;10.200;2022-07-11T10:38:23;21.80;61.60
20337;DHT22;10326;53.660;10.200;2022-07-11T10:40:53;21.80;61.40
20337;DHT22;10326;53.660;10.200;2022-07-11T10:43:35;21.80;59.90
20337;DHT22;10326;53.660;10.200;2022-07-11T10:46:07;21.80;60.40
20337;DHT22;10326;53.660;10.200;2022-07-11T10:48:51;21.90;60.90
20337;DHT22;10326;53.660;10.200;2022-07-11T10:51:25;21.90;61.00
20337;DHT22;10326;53.660;10.200;2022-07-11T10:54:03;22.00;60.60
20337;DHT22;10326;53.660;10.200;2022-07-11T10:57:54;22.00;60.50
20337;DHT22;10326;53.660;10.200;2022-07-11T11:00:26;22.00;60.20
20337;DHT22;10326;53.660;10.200;2022-07-11T11:03:01;22.00;59.80
20337;DHT22;10326;53.660;10.200;2022-07-11T11:05:50;22.10;59.20
20337;DHT22;10326;53.660;10.200;2022-07-11T11:08:44;22.10;59.30
20337;DHT22;10326;53.660;10.200;2022-07-11T11:11:46;22.10;58.90
20337;DHT22;10326;53.660;10.200;2022-07-11T11:14:22;22.10;59.20
20337;DHT22;10326;53.660;10.200;2022-07-11T11:21:17;22.10;58.80
20337;DHT22;10326;53.660;10.200;2022-07-11T11:24:15;22.20;58.40
20337;DHT22;10326;53.660;10.200;2022-07-11T11:26:49;22.20;57.60
20337;DHT22;10326;53.660;10.200;2022-07-11T11:29:23;22.20;58.40
20337;DHT22;10326;53.660;10.200;2022-07-11T11:31:57;22.20;58.30
20337;DHT22;10326;53.660;10.200;2022-07-11T11:34:25;22.20;58.20
20337;DHT22;10326;53.660;10.200;2022-07-11T11:36:57;22.30;58.80
20337;DHT22;10326;53.660;10.200;2022-07-11T11:39:28;22.40;59.00
20337;DHT22;10326;53.660;10.200;2022-07-11T11:42:16;22.40;58.30
20337;DHT22;10326;53.660;10.200;2022-07-11T11:44:52;22.50;57.70
20337;DHT22;10326;53.660;10.200;2022-07-11T11:47:25;22.50;58.20
20337;DHT22;10326;53.660;10.200;2022-07-11T11:49:55;22.50;58.10
20337;DHT22;10326;53.660;10.200;2022-07-11T11:52:22;22.50;58.20
20337;DHT22;10326;53.660;10.200;2022-07-11T11:54:54;22.50;58.10
20337;DHT22;10326;53.660;10.200;2022-07-11T11:57:23;22.50;58.30
20337;DHT22;10326;53.660;10.200;2022-07-11T11:59:53;22.50;58.20
20337;DHT22;10326;53.660;10.200;2022-07-11T12:02:24;22.60;58.10
20337;DHT22;10326;53.660;10.200;2022-07-11T12:04:53;22.70;58.10
20337;DHT22;10326;53.660;10.200;2022-07-11T12:07:24;22.70;58.20
20337;DHT22;10326;53.660;10.200;2022-07-11T12:09:56;22.80;58.40
20337;DHT22;10326;53.660;10.200;2022-07-11T12:12:26;22.80;59.10
20337;DHT22;10326;53.660;10.200;2022-07-11T12:15:30;22.90;59.10
20337;DHT22;10326;53.660;10.200;2022-07-11T12:18:01;23.10;59.30
20337;DHT22;10326;53.660;10.200;2022-07-11T12:20:39;23.20;59.20
20337;DHT22;10326;53.660;10.200;2022-07-11T12:23:11;23.20;58.60
20337;DHT22;10326;53.660;10.200;2022-07-11T12:25:40;23.40;57.80
20337;DHT22;10326;53.660;10.200;2022-07-11T12:28:12;23.50;58.40
20337;DHT22;10326;53.660;10.200;2022-07-11T12:30:41;23.60;57.80
20337;DHT22;10326;53.660;10.200;2022-07-11T12:33:10;23.70;57.50
20337;DHT22;10326;53.660;10.200;2022-07-11T12:35:53;23.70;57.50
20337;DHT22;10326;53.660;10.200;2022-07-11T12:38:22;23.70;57.30
20337;DHT22;10326;53.660;10.200;2022-07-11T12:41:03;23.70;57.40
20337;DHT22;10326;53.660;10.200;2022-07-11T12:43:42;23.80;56.50
20337;DHT22;10326;53.660;10.200;2022-07-11T12:46:33;23.80;56.00
20337;DHT22;10326;53.660;10.200;2022-07-11T12:49:01;23.90;56.90
20337;DHT22;10326;53.660;10.200;2022-07-11T12:51:31;23.90;56.80
20337;DHT22;10326;53.660;10.200;2022-07-11T12:54:02;23.90;56.60
20337;DHT22;10326;53.660;10.200;2022-07-11T12:56:30;23.90;56.70
20337;DHT22;10326;53.660;10.200;2022-07-11T12:58:58;23.90;56.20
20337;DHT22;10326;53.660;10.200;2022-07-11T13:01:27;23.90;55.90
20337;DHT22;10326;53.660;10.200;2022-07-11T13:03:57;23.90;56.40
20337;DHT22;10326;53.660;10.200;2022-07-11T13:06:24;23.90;56.60
20337;DHT22;10326;53.660;10.200;2022-07-11T13:09:09;24.00;56.40
20337;DHT22;10326;53.660;10.200;2022-07-11T13:11:40;24.10;56.60
20337;DHT22;10326;53.660;10.200;2022-07-11T13:14:08;24.10;56.90
20337;DHT22;10326;53.660;10.200;2022-07-11T13:16:49;24.20;56.80
20337;DHT22;10326;53.660;10.200;2022-07-11T13:19:17;24.40;56.40
20337;DHT22;10326;53.660;10.200;2022-07-11T13:21:44;24.50;55.70
20337;DHT22;10326;53.660;10.200;2022-07-11T13:24:11;24.50;55.30
20337;DHT22;10326;53.660;10.200;2022-07-11T13:26:38;24.60;55.10
20337;DHT22;10326;53.660;10.200;2022-07-11T13:29:05;24.60;54.80
20337;DHT22;10326;53.660;10.200;2022-07-11T13:31:32;24.60;55.10
20337;DHT22;10326;53.660;10.200;2022-07-11T13:33:59;24.60;55.20
20337;DHT22;10326;53.660;10.200;2022-07-11T13:36:27;24.60;55.20
20337;DHT22;10326;53.660;10.200;2022-07-11T13:38:54;24.60;55.60
20337;DHT22;10326;53.660;10.200;2022-07-11T13:41:21;24.60;55.30
20337;DHT22;10326;53.660;10.200;2022-07-11T13:43:49;24.70;55.30
20337;DHT22;10326;53.660;10.200;2022-07-11T13:46:16;24.70;55.00
20337;DHT22;10326;53.660;10.200;2022-07-11T13:48:45;24.80;54.40
20337;DHT22;10326;53.660;10.200;2022-07-11T13:51:16;24.90;54.50
20337;DHT22;10326;53.660;10.200;2022-07-11T13:53:47;25.00;54.40
20337;DHT22;10326;53.660;10.200;2022-07-11T13:56:15;25.00;54.30
20337;DHT22;10326;53.660;10.200;2022-07-11T13:58:42;25.10;54.80
20337;DHT22;10326;53.660;10.200;2022-07-11T14:01:09;25.20;55.10
20337;DHT22;10326;53.660;10.200;2022-07-11T14:03:36;25.30;55.20
20337;DHT22;10326;53.660;10.200;2022-07-11T14:06:03;25.40;55.40
20337;DHT22;10326;53.660;10.200;2022-07-11T14:08:31;25.50;55.30
20337;DHT22;10326;53.660;10.200;2022-07-11T14:10:59;25.60;55.00
20337;DHT22;10326;53.660;10.200;2022-07-11T14:13:26;25.70;54.40
20337;DHT22;10326;53.660;10.200;2022-07-11T14:15:53;25.80;53.40
20337;DHT22;10326;53.660;10.200;2022-07-11T14:18:21;25.90;53.40
20337;DHT22;10326;53.660;10.200;2022-07-11T14:20:48;25.90;53.80
20337;DHT22;10326;53.660;10.200;2022-07-11T14:23:15;26.00;53.40
20337;DHT22;10326;53.660;10.200;2022-07-11T14:25:42;26.00;53.50
20337;DHT22;10326;53.660;10.200;2022-07-11T14:28:10;26.00;53.70
20337;DHT22;10326;53.660;10.200;2022-07-11T14:30:37;26.10;53.20
20337;DHT22;10326;53.660;10.200;2022-07-11T14:33:05;26.10;53.60
20337;DHT22;10326;53.660;10.200;2022-07-11T14:35:31;26.10;53.60
20337;DHT22;10326;53.660;10.200;2022-07-11T14:37:59;26.20;53.20
20337;DHT22;10326;53.660;10.200;2022-07-11T14:40:26;26.30;53.40
20337;DHT22;10326;53.660;10.200;2022-07-11T14:42:53;26.30;52.20
20337;DHT22;10326;53.660;10.200;2022-07-11T14:45:22;26.30;52.70
20337;DHT22;10326;53.660;10.200;2022-07-11T14:47:49;26.40;51.90
20337;DHT22;10326;53.660;10.200;2022-07-11T14:50:16;26.40;52.40
20337;DHT22;10326;53.660;10.200;2022-07-11T14:52:43;26.50;52.50
20337;DHT22;10326;53.660;10.200;2022-07-11T14:55:10;26.50;51.70
20337;DHT22;10326;53.660;10.200;2022-07-11T14:57:37;26.50;51.40
20337;DHT22;10326;53.660;10.200;2022-07-11T15:00:05;26.60;52.00
20337;DHT22;10326;53.660;10.200;2022-07-11T15:02:35;26.60;51.30
20337;DHT22;10326;53.660;10.200;2022-07-11T15:05:20;26.70;51.70
20337;DHT22;10326;53.660;10.200;2022-07-11T15:07:47;26.70;51.50
20337;DHT22;10326;53.660;10.200;2022-07-11T15:10:31;26.70;51.60
20337;DHT22;10326;53.660;10.200;2022-07-11T15:13:16;26.70;50.90
20337;DHT22;10326;53.660;10.200;2022-07-11T15:15:44;26.70;52.20
20337;DHT22;10326;53.660;10.200;2022-07-11T15:18:12;26.70;51.40
20337;DHT22;10326;53.660;10.200;2022-07-11T15:20:41;26.70;50.80
20337;DHT22;10326;53.660;10.200;2022-07-11T15:23:08;26.70;51.40
20337;DHT22;10326;53.660;10.200;2022-07-11T15:25:36;26.70;51.30
20337;DHT22;10326;53.660;10.200;2022-07-11T15:28:03;26.70;51.20
20337;DHT22;10326;53.660;10.200;2022-07-11T15:30:31;26.70;51.00
20337;DHT22;10326;53.660;10.200;2022-07-11T15:32:58;26.70;50.80
20337;DHT22;10326;53.660;10.200;2022-07-11T15:35:27;26.70;50.80